Time;durP1;ratioP1;P1;durP2;ratioP2;P2;SDS_P1;SDS_P2;PMS_P1;PMS_P2;Temp;Humidity;BMP_temperature;BMP_pressure;BME280_temperature;BME280_humidity;BME280_pressure;Samples;Min_cycle;Max_cycle;Signal;HPM_P1;HPM_P2
2022/05/02 00:00:54;;;;;;;15.13;7.53;;;4.80;99.90;;;;;;5023656;28;20061;-84
2022/05/02 00:03:20;;;;;;;10.43;7.55;;;4.80;99.90;;;;;;5043839;28;20477;-84
2022/05/02 00:05:46;;;;;;;9.52;7.13;;;4.80;99.90;;;;;;5041076;28;20387;-83
2022/05/02 00:08:12;;;;;;;11.95;7.63;;;4.70;99.90;;;;;;5059282;28;20099;-84
2022/05/02 00:10:38;;;;;;;9.00;7.35;;;4.70;99.90;;;;;;5039270;28;20407;-84
2022/05/02 00:13:06;;;;;;;12.48;7.43;;;4.60;99.90;;;;;;5037733;28;20084;-83
2022/05/02 00:15:32;;;;;;;12.40;8.45;;;4.60;99.90;;;;;;5035686;28;20057;-83
2022/05/02 00:17:59;;;;;;;11.93;7.60;;;4.60;99.90;;;;;;5036017;28;20051;-83
2022/05/02 00:20:29;;;;;;;10.88;7.95;;;4.60;99.90;;;;;;5035707;28;20105;-83
2022/05/02 00:22:55;;;;;;;12.32;8.20;;;4.60;99.90;;;;;;5036551;28;20053;-85
2022/05/02 00:25:21;;;;;;;14.18;8.13;;;4.50;99.90;;;;;;5054338;28;20049;-83
2022/05/02 00:27:47;;;;;;;11.02;8.45;;;4.50;99.90;;;;;;5035054;28;20049;-83
2022/05/02 00:30:14;;;;;;;12.65;8.75;;;4.50;99.90;;;;;;5018973;28;20064;-83
2022/05/02 00:32:40;;;;;;;12.07;8.05;;;4.50;99.90;;;;;;5053035;28;20098;-83
2022/05/02 00:35:07;;;;;;;13.85;8.25;;;4.80;99.90;;;;;;5052693;28;20064;-86
2022/05/02 00:37:35;;;;;;;12.52;8.63;;;4.50;99.90;;;;;;5034000;28;20085;-83
2022/05/02 00:40:00;;;;;;;14.07;8.95;;;4.50;99.90;;;;;;5052513;28;20041;-84
2022/05/02 00:42:26;;;;;;;14.15;8.48;;;4.50;99.90;;;;;;5018547;28;20106;-84
2022/05/02 00:44:52;;;;;;;12.75;8.95;;;4.40;99.90;;;;;;5052221;28;20114;-84
2022/05/02 00:47:20;;;;;;;16.33;9.30;;;4.40;99.90;;;;;;5034458;28;20059;-83
2022/05/02 00:49:48;;;;;;;13.57;9.00;;;4.40;99.90;;;;;;5034462;28;20418;-84
2022/05/02 00:52:14;;;;;;;13.82;8.95;;;4.40;99.90;;;;;;5034551;28;20395;-83
2022/05/02 00:54:41;;;;;;;14.32;8.65;;;4.30;99.90;;;;;;5052221;28;20044;-83
2022/05/02 00:57:07;;;;;;;17.42;9.30;;;4.30;99.90;;;;;;5052059;28;20048;-83
2022/05/02 00:59:37;;;;;;;13.25;8.77;;;4.30;99.90;;;;;;5050985;28;20402;-83
2022/05/02 01:02:04;;;;;;;11.52;9.07;;;4.20;99.90;;;;;;5033818;28;20057;-83
2022/05/02 01:04:30;;;;;;;14.50;9.55;;;4.20;99.90;;;;;;5051828;28;20052;-83
2022/05/02 01:07:11;;;;;;;14.02;10.02;;;4.20;99.90;;;;;;5034462;28;20501;-83
2022/05/02 01:09:45;;;;;;;15.37;10.00;;;4.10;99.90;;;;;;5034317;28;20056;-83
2022/05/02 01:12:14;;;;;;;17.63;10.18;;;4.50;99.90;;;;;;5033837;28;20107;-82
2022/05/02 01:14:41;;;;;;;15.57;9.73;;;4.10;99.90;;;;;;5051866;28;20067;-83
2022/05/02 01:17:07;;;;;;;16.80;10.32;;;4.00;99.90;;;;;;5034107;28;20045;-84
2022/05/02 01:19:33;;;;;;;15.50;10.60;;;4.40;99.90;;;;;;5034242;28;20063;-83
2022/05/02 01:21:59;;;;;;;19.83;10.60;;;4.00;99.90;;;;;;5051802;28;20127;-83
2022/05/02 01:24:38;;;;;;;15.38;9.95;;;4.00;99.90;;;;;;5018062;28;20150;-83
2022/05/02 01:27:05;;;;;;;18.95;10.15;;;3.90;99.90;;;;;;5052071;28;20155;-83
2022/05/02 01:29:33;;;;;;;14.93;10.85;;;3.90;99.90;;;;;;5051595;28;20044;-83
2022/05/02 01:32:00;;;;;;;15.50;10.88;;;3.90;99.90;;;;;;5034010;28;20045;-83
2022/05/02 01:34:26;;;;;;;15.23;10.68;;;3.80;99.90;;;;;;5051865;28;20055;-83
2022/05/02 01:36:52;;;;;;;14.75;10.85;;;3.90;99.90;;;;;;5051670;28;20049;-83
2022/05/02 01:39:18;;;;;;;17.42;10.68;;;3.80;99.90;;;;;;5054244;28;20088;-83
2022/05/02 01:41:44;;;;;;;14.80;10.18;;;3.80;99.90;;;;;;5055705;28;20077;-83
2022/05/02 01:44:10;;;;;;;17.65;10.82;;;3.80;99.90;;;;;;5055242;28;20052;-82
2022/05/02 01:46:38;;;;;;;15.30;11.23;;;3.70;99.90;;;;;;5054949;28;20049;-83
2022/05/02 01:49:04;;;;;;;19.38;11.57;;;3.70;99.90;;;;;;5055306;28;20051;-83
2022/05/02 01:51:30;;;;;;;18.45;10.95;;;3.70;99.90;;;;;;5037028;28;20061;-82
2022/05/02 01:53:55;;;;;;;18.85;12.25;;;3.70;99.90;;;;;;5021322;28;20153;-82
2022/05/02 01:56:21;;;;;;;20.23;12.35;;;3.60;99.90;;;;;;5055163;28;20048;-83
2022/05/02 01:58:46;;;;;;;17.63;11.93;;;3.60;99.90;;;;;;5036904;28;20152;-82
2022/05/02 02:01:12;;;;;;;19.35;11.98;;;3.60;99.90;;;;;;5036860;28;20148;-86
2022/05/02 02:03:38;;;;;;;16.17;12.00;;;3.60;99.90;;;;;;5037302;28;20136;-83
2022/05/02 02:06:04;;;;;;;18.40;12.15;;;3.50;99.90;;;;;;5037505;28;20053;-82
2022/05/02 02:08:32;;;;;;;17.13;11.80;;;3.50;99.90;;;;;;5037426;28;20045;-82
2022/05/02 02:11:00;;;;;;;20.50;12.10;;;3.50;99.90;;;;;;5054959;28;20401;-84
2022/05/02 02:13:26;;;;;;;17.55;12.27;;;3.50;99.90;;;;;;5054820;28;20049;-82
2022/05/02 02:15:52;;;;;;;18.40;11.50;;;3.40;99.90;;;;;;5036876;28;20106;-82
2022/05/02 02:18:18;;;;;;;18.08;11.70;;;3.40;99.90;;;;;;5036813;28;20411;-81
2022/05/02 02:20:46;;;;;;;24.10;12.65;;;3.40;99.90;;;;;;5036256;28;20059;-82
2022/05/02 02:23:13;;;;;;;18.88;11.52;;;3.40;99.90;;;;;;5037083;28;20049;-81
2022/05/02 02:25:39;;;;;;;20.15;12.38;;;3.40;99.90;;;;;;5054360;28;20701;-82
2022/05/02 02:28:05;;;;;;;23.45;13.40;;;3.30;99.90;;;;;;5036849;28;20102;-82
2022/05/02 02:30:31;;;;;;;22.20;12.95;;;3.30;99.90;;;;;;5020412;28;20060;-82
2022/05/02 02:32:57;;;;;;;20.77;11.90;;;3.40;99.90;;;;;;5036628;28;20052;-85
2022/05/02 02:35:23;;;;;;;18.75;13.20;;;3.30;99.90;;;;;;5036895;28;20048;-83
2022/05/02 02:37:51;;;;;;;21.88;13.15;;;3.20;99.90;;;;;;5019556;28;20129;-82
2022/05/02 02:40:17;;;;;;;23.55;13.27;;;3.20;99.90;;;;;;5019652;28;20395;-82
2022/05/02 02:42:43;;;;;;;22.45;13.30;;;3.10;99.90;;;;;;5036228;28;20097;-83
2022/05/02 02:45:10;;;;;;;17.88;12.45;;;3.10;99.90;;;;;;5036293;28;20064;-82
2022/05/02 02:47:36;;;;;;;20.90;13.02;;;3.10;99.90;;;;;;5035889;28;20098;-82
2022/05/02 02:50:03;;;;;;;21.77;12.70;;;3.30;99.90;;;;;;5019421;28;20085;-83
2022/05/02 02:52:28;;;;;;;21.13;13.45;;;3.10;99.90;;;;;;5053957;28;20049;-82
2022/05/02 02:54:54;;;;;;;24.17;13.55;;;3.00;99.90;;;;;;5019945;28;20071;-82
2022/05/02 02:57:20;;;;;;;22.75;13.57;;;3.00;99.90;;;;;;5054002;28;20041;-83
2022/05/02 02:59:45;;;;;;;19.08;12.75;;;3.00;99.90;;;;;;5035598;28;20049;-83
2022/05/02 03:02:14;;;;;;;24.08;12.90;;;3.00;99.90;;;;;;5035530;28;20053;-83
2022/05/02 03:07:26;;;;;;;19.13;12.52;;;2.90;99.90;;;;;;5036132;28;20454;-82
2022/05/02 03:09:52;;;;;;;21.60;13.02;;;3.00;99.90;;;;;;5053551;28;20064;-84
2022/05/02 03:12:19;;;;;;;22.20;12.80;;;2.90;99.90;;;;;;5053735;28;20085;-83
2022/05/02 03:14:45;;;;;;;22.98;13.13;;;2.90;99.90;;;;;;5035126;28;20101;-82
2022/05/02 03:17:11;;;;;;;20.20;12.38;;;2.80;99.90;;;;;;5035577;28;20076;-82
2022/05/02 03:19:37;;;;;;;22.20;13.98;;;2.90;99.90;;;;;;5035825;28;20045;-83
2022/05/02 03:22:03;;;;;;;25.27;14.00;;;2.80;99.90;;;;;;5035743;28;20131;-82
2022/05/02 03:24:29;;;;;;;26.02;15.20;;;2.80;99.90;;;;;;5053464;28;20411;-82
2022/05/02 03:26:55;;;;;;;26.40;14.75;;;2.80;99.90;;;;;;5053397;28;20041;-83
2022/05/02 03:29:21;;;;;;;22.85;13.93;;;2.80;99.90;;;;;;5034903;28;20053;-83
2022/05/02 03:31:46;;;;;;;26.38;14.55;;;2.70;99.90;;;;;;5035709;28;20052;-82
2022/05/02 03:34:12;;;;;;;26.02;14.18;;;2.70;99.90;;;;;;5035510;28;20049;-82
2022/05/02 03:36:38;;;;;;;33.45;15.25;;;2.70;99.90;;;;;;5052880;28;20055;-82
2022/05/02 03:39:05;;;;;;;26.88;15.57;;;2.70;99.90;;;;;;5052762;28;20080;-84
2022/05/02 03:41:31;;;;;;;27.52;15.73;;;2.60;99.90;;;;;;5052812;28;20040;-82
2022/05/02 03:43:57;;;;;;;27.67;15.50;;;2.60;99.90;;;;;;5018950;28;20052;-83
2022/05/02 03:46:23;;;;;;;24.88;15.05;;;2.60;99.90;;;;;;5034953;28;20057;-82
2022/05/02 03:48:49;;;;;;;28.48;14.93;;;2.60;99.90;;;;;;5035219;28;20471;-83
2022/05/02 03:51:15;;;;;;;28.35;15.35;;;2.60;99.90;;;;;;5034651;28;20141;-82
2022/05/02 03:53:40;;;;;;;27.17;15.07;;;2.60;99.90;;;;;;5052484;28;20053;-82
2022/05/02 03:56:06;;;;;;;29.95;15.00;;;2.60;99.90;;;;;;5051493;28;20044;-82
2022/05/02 03:58:32;;;;;;;26.38;15.38;;;2.60;99.90;;;;;;5035286;28;20128;-83
2022/05/02 04:00:57;;;;;;;25.38;15.82;;;2.60;99.90;;;;;;5034941;28;20057;-82
2022/05/02 04:03:23;;;;;;;25.45;15.88;;;2.70;99.90;;;;;;5017948;28;20096;-82
2022/05/02 04:05:49;;;;;;;24.17;15.50;;;2.60;99.90;;;;;;5035225;28;20049;-82
2022/05/02 04:08:15;;;;;;;21.67;14.50;;;2.60;99.90;;;;;;5034909;28;20060;-82
2022/05/02 04:10:41;;;;;;;25.15;15.55;;;2.60;99.90;;;;;;5052885;28;20045;-82
2022/05/02 04:13:07;;;;;;;28.38;16.33;;;2.60;99.90;;;;;;5035014;28;20044;-81
2022/05/02 04:15:34;;;;;;;32.20;16.52;;;2.60;99.90;;;;;;5034768;28;20191;-81
2022/05/02 04:18:00;;;;;;;26.20;15.88;;;2.60;99.90;;;;;;5034768;28;20402;-82
2022/05/02 04:20:26;;;;;;;25.25;15.90;;;2.60;99.90;;;;;;5052709;28;20174;-83
2022/05/02 04:22:51;;;;;;;27.83;16.02;;;2.60;99.90;;;;;;5052756;28;20154;-82
2022/05/02 04:25:17;;;;;;;28.38;16.15;;;2.60;99.90;;;;;;5026525;28;20050;-82
2022/05/02 04:27:43;;;;;;;30.88;15.35;;;2.60;99.90;;;;;;5042900;28;20060;-82
2022/05/02 04:30:10;;;;;;;22.13;14.70;;;2.60;99.90;;;;;;5035947;28;20375;-82
2022/05/02 04:32:36;;;;;;;26.58;15.68;;;2.60;99.90;;;;;;5058098;28;20458;-82
2022/05/02 04:35:03;;;;;;;27.88;15.68;;;2.60;99.90;;;;;;5048925;28;20071;-83
2022/05/02 04:37:29;;;;;;;29.70;16.27;;;2.60;99.90;;;;;;5059697;28;20125;-83
2022/05/02 04:39:54;;;;;;;31.33;15.93;;;2.80;99.90;;;;;;5018242;28;20045;-82
2022/05/02 04:42:20;;;;;;;31.63;16.33;;;2.90;99.90;;;;;;5040157;28;20048;-86
2022/05/02 04:44:46;;;;;;;26.67;15.07;;;2.70;99.90;;;;;;5059696;28;20521;-82
2022/05/02 04:47:12;;;;;;;22.42;15.57;;;2.80;99.90;;;;;;5052005;28;20478;-81
2022/05/02 04:49:38;;;;;;;24.83;15.38;;;2.80;99.90;;;;;;5071489;28;20050;-82
2022/05/02 04:52:04;;;;;;;26.27;15.93;;;2.90;99.90;;;;;;5062142;28;20402;-82
2022/05/02 04:54:29;;;;;;;26.42;15.90;;;2.90;99.90;;;;;;5044423;28;20091;-84
2022/05/02 04:56:55;;;;;;;25.52;14.98;;;3.00;99.90;;;;;;5053906;28;20140;-83
2022/05/02 04:59:21;;;;;;;31.27;15.05;;;3.10;99.90;;;;;;5034054;28;20135;-82
2022/05/02 05:01:46;;;;;;;25.20;15.68;;;3.10;99.90;;;;;;5072607;28;20056;-83
2022/05/02 05:04:12;;;;;;;26.83;15.80;;;3.20;99.90;;;;;;5070942;28;20049;-81
2022/05/02 05:06:38;;;;;;;28.67;15.90;;;3.30;99.90;;;;;;5072202;28;20135;-82
2022/05/02 05:09:04;;;;;;;25.73;15.60;;;3.40;99.90;;;;;;5054523;28;20044;-81
2022/05/02 05:12:05;;;;;;;30.25;17.00;;;3.40;99.90;;;;;;5054025;28;20460;-82
2022/05/02 05:18:17;;;;;;;25.58;15.80;;;3.70;99.90;;;;;;5033912;28;20053;-82
2022/05/02 05:20:57;;;;;;;26.42;15.70;;;3.80;99.90;;;;;;5033702;28;20045;-82
2022/05/02 05:23:25;;;;;;;27.25;15.95;;;3.90;99.90;;;;;;5017122;28;20065;-82
2022/05/02 05:26:10;;;;;;;26.48;15.68;;;4.00;99.90;;;;;;5017286;28;20196;-82
2022/05/02 05:29:07;;;;;;;21.70;15.48;;;4.10;99.90;;;;;;5017373;28;20084;-82
2022/05/02 05:31:42;;;;;;;23.23;14.60;;;4.20;99.90;;;;;;5033542;28;20123;-82
2022/05/02 05:34:44;;;;;;;21.90;15.25;;;4.40;99.90;;;;;;5001163;28;20056;-81
2022/05/02 05:37:36;;;;;;;22.73;15.15;;;4.30;99.90;;;;;;5033411;28;20051;-82
2022/05/02 05:40:11;;;;;;;22.00;14.68;;;4.50;99.90;;;;;;5033406;28;20049;-82
2022/05/02 05:42:49;;;;;;;20.65;15.32;;;4.50;99.90;;;;;;5033603;28;20081;-82
2022/05/02 05:45:55;;;;;;;20.15;15.23;;;4.80;99.90;;;;;;5033109;28;20515;-82
2022/05/02 05:48:28;;;;;;;26.35;16.10;;;4.80;99.90;;;;;;5013726;28;20049;-81
2022/05/02 05:51:18;;;;;;;22.50;14.70;;;4.90;99.90;;;;;;4997381;28;20467;-84
2022/05/02 05:54:10;;;;;;;21.73;15.25;;;5.00;99.90;;;;;;4997148;28;20057;-82
2022/05/02 05:56:57;;;;;;;20.98;13.30;;;5.10;99.90;;;;;;4966144;28;20051;-88
2022/05/02 05:59:44;;;;;;;20.55;14.40;;;5.20;99.90;;;;;;4958484;28;20046;-92
2022/05/02 06:03:06;;;;;;;25.23;16.13;;;5.40;99.90;;;;;;4974401;28;20456;-83
2022/05/02 06:05:35;;;;;;;21.50;14.77;;;5.50;99.90;;;;;;4920044;29;20059;-82
2022/05/02 06:08:03;;;;;;;23.55;13.55;;;5.70;99.90;;;;;;4927816;29;20091;-83
2022/05/02 06:10:30;;;;;;;17.08;11.85;;;6.10;99.90;;;;;;4935502;29;20074;-82
2022/05/02 06:12:58;;;;;;;22.85;14.48;;;5.90;99.90;;;;;;4935807;29;20094;-84
2022/05/02 06:18:29;;;;;;;21.17;12.75;;;6.10;99.90;;;;;;4935476;29;20055;-82
2022/05/02 06:21:01;;;;;;;25.70;14.82;;;6.30;99.90;;;;;;4935603;29;20134;-83
2022/05/02 06:23:54;;;;;;;21.92;13.43;;;6.40;99.90;;;;;;4926443;29;20062;-83
2022/05/02 06:26:23;;;;;;;27.02;14.70;;;6.60;99.90;;;;;;4936806;29;20073;-83
2022/05/02 06:28:50;;;;;;;16.50;12.40;;;6.90;99.90;;;;;;4954495;29;20108;-83
2022/05/02 06:31:21;;;;;;;16.55;12.23;;;7.10;99.90;;;;;;4935558;29;20059;-83
2022/05/02 06:33:49;;;;;;;19.35;13.30;;;7.20;99.90;;;;;;4951465;29;20047;-84
2022/05/02 06:36:46;;;;;;;18.00;12.43;;;7.40;99.90;;;;;;4995298;28;20188;-85
2022/05/02 06:39:28;;;;;;;23.80;13.40;;;7.60;99.90;;;;;;5032120;28;20064;-83
2022/05/02 06:42:19;;;;;;;16.98;12.10;;;7.80;99.90;;;;;;5017231;28;20081;-85
2022/05/02 06:45:06;;;;;;;16.75;12.60;;;8.10;99.90;;;;;;5034185;28;20518;-85
2022/05/02 06:47:43;;;;;;;19.83;12.90;;;8.20;99.90;;;;;;5034758;28;20532;-84
2022/05/02 06:50:12;;;;;;;14.93;12.25;;;8.40;99.90;;;;;;5034401;28;20053;-84
2022/05/02 06:52:56;;;;;;;18.80;12.45;;;8.90;99.90;;;;;;5034293;28;20459;-84
2022/05/02 06:55:36;;;;;;;16.40;11.80;;;8.80;99.90;;;;;;5034128;28;20050;-84
2022/05/02 06:58:39;;;;;;;18.52;12.15;;;9.20;99.90;;;;;;5016760;28;20525;-84
2022/05/02 07:01:30;;;;;;;15.02;10.88;;;9.40;99.90;;;;;;5034545;28;20045;-84
2022/05/02 07:04:25;;;;;;;18.90;12.07;;;9.60;99.90;;;;;;5016745;28;20406;-84
2022/05/02 07:07:15;;;;;;;12.52;10.30;;;9.80;99.90;;;;;;5033881;28;20045;-85
2022/05/02 07:09:45;;;;;;;14.48;9.77;;;10.40;99.90;;;;;;5000288;28;20136;-85
2022/05/02 07:12:18;;;;;;;17.02;10.05;;;11.20;99.90;;;;;;5034100;28;20088;-83
2022/05/02 07:15:02;;;;;;;11.15;9.50;;;11.40;99.90;;;;;;5034170;28;20110;-83
2022/05/02 07:17:47;;;;;;;14.27;10.10;;;11.40;99.90;;;;;;4999782;28;20060;-84
2022/05/02 07:20:55;;;;;;;11.02;8.30;;;11.50;99.90;;;;;;5012293;28;20469;-84
2022/05/02 07:23:45;;;;;;;14.05;9.55;;;11.70;99.90;;;;;;5033150;28;20438;-84
2022/05/02 07:26:14;;;;;;;11.70;9.02;;;12.10;99.90;;;;;;5043671;28;20106;-84
2022/05/02 07:28:50;;;;;;;13.35;8.48;;;12.40;99.90;;;;;;5010545;28;20120;-84
2022/05/02 07:31:24;;;;;;;12.93;9.05;;;12.80;99.90;;;;;;5035778;28;20052;-83
2022/05/02 07:33:52;;;;;;;13.15;8.60;;;13.30;99.90;;;;;;5053732;28;20490;-84
2022/05/02 07:36:19;;;;;;;10.68;8.32;;;13.70;99.90;;;;;;5035137;28;20041;-85
2022/05/02 07:39:04;;;;;;;9.88;8.68;;;13.90;99.90;;;;;;5052018;28;20505;-84
2022/05/02 07:41:32;;;;;;;12.75;8.90;;;13.90;99.90;;;;;;5016896;28;20057;-85
2022/05/02 07:44:06;;;;;;;12.02;8.73;;;13.90;99.90;;;;;;5031653;28;20612;-85
2022/05/02 07:46:41;;;;;;;13.43;8.05;;;14.10;99.90;;;;;;5034281;28;20044;-85
2022/05/02 07:49:09;;;;;;;12.95;7.88;;;14.80;99.90;;;;;;5027927;28;20068;-85
2022/05/02 07:51:43;;;;;;;13.13;7.78;;;16.30;99.90;;;;;;5031743;28;20054;-85
2022/05/02 07:54:15;;;;;;;9.52;6.95;;;17.40;99.90;;;;;;5033230;28;20049;-86
2022/05/02 07:56:42;;;;;;;8.25;6.75;;;18.50;99.90;;;;;;5048903;28;20275;-84
2022/05/02 07:59:10;;;;;;;11.65;7.43;;;19.30;95.10;;;;;;5052260;28;20037;-86
2022/05/02 08:01:35;;;;;;;7.68;6.38;;;19.90;90.20;;;;;;5035813;28;20109;-85
2022/05/02 08:04:01;;;;;;;9.00;6.38;;;20.40;83.10;;;;;;5019781;28;20127;-86
2022/05/02 08:06:56;;;;;;;8.48;6.10;;;20.90;74.60;;;;;;5036704;28;20128;-89
2022/05/02 08:09:43;;;;;;;7.18;6.43;;;21.40;69.80;;;;;;5054593;28;20706;-88
2022/05/02 08:12:16;;;;;;;8.85;6.32;;;21.80;66.00;;;;;;5006393;28;20140;-85
2022/05/02 08:14:45;;;;;;;7.93;6.22;;;22.30;58.20;;;;;;5035791;28;20049;-86
2022/05/02 08:17:33;;;;;;;6.78;6.07;;;22.50;58.10;;;;;;5035872;28;20049;-86
2022/05/02 08:20:06;;;;;;;7.93;6.72;;;22.90;54.70;;;;;;5034794;28;20060;-90
2022/05/02 08:28:54;;;;;;;9.02;6.57;;;23.50;52.10;;;;;;4965776;28;20057;-86
2022/05/02 08:32:07;;;;;;;8.05;6.05;;;23.70;49.60;;;;;;4954352;28;20532;-85
2022/05/02 08:34:38;;;;;;;9.52;6.57;;;23.90;46.80;;;;;;4949368;29;20114;-85
2022/05/02 08:37:38;;;;;;;10.45;6.28;;;24.20;47.90;;;;;;4954209;29;20047;-87
2022/05/02 08:40:29;;;;;;;7.15;6.20;;;24.40;46.70;;;;;;4938003;29;20074;-87
2022/05/02 08:43:22;;;;;;;8.07;5.70;;;24.50;44.80;;;;;;4936965;29;20537;-87
2022/05/02 08:46:19;;;;;;;9.80;5.57;;;24.90;44.60;;;;;;4928409;29;20539;-86
2022/05/02 08:49:32;;;;;;;7.05;5.53;;;25.20;43.50;;;;;;4951317;28;20059;-87
2022/05/02 08:52:05;;;;;;;5.93;5.30;;;25.30;43.80;;;;;;4937210;29;20055;-86
2022/05/02 08:54:52;;;;;;;8.65;5.63;;;25.50;42.60;;;;;;4937196;29;20094;-85
2022/05/02 08:57:51;;;;;;;7.07;5.15;;;26.00;39.90;;;;;;4937110;29;20240;-87
2022/05/02 09:00:39;;;;;;;9.65;5.65;;;25.90;40.90;;;;;;4953120;29;20592;-86
2022/05/02 09:03:48;;;;;;;9.85;5.72;;;26.00;40.80;;;;;;4921260;29;20082;-85
2022/05/02 09:06:46;;;;;;;32.42;7.60;;;26.20;39.80;;;;;;5009282;28;20046;-84
2022/05/02 09:09:28;;;;;;;6.65;5.38;;;26.30;40.70;;;;;;4999188;28;20048;-85
2022/05/02 09:12:06;;;;;;;5.97;5.22;;;26.60;40.40;;;;;;5016198;28;20492;-84
2022/05/02 09:15:10;;;;;;;5.97;5.32;;;26.60;38.40;;;;;;5016304;28;20506;-83
2022/05/02 09:18:10;;;;;;;9.40;5.80;;;26.30;38.00;;;;;;5031722;28;20511;-83
2022/05/02 09:20:53;;;;;;;6.68;5.40;;;25.70;38.80;;;;;;5016450;28;20488;-84
2022/05/02 09:23:34;;;;;;;5.85;5.25;;;25.60;39.10;;;;;;5015316;28;20108;-83
2022/05/02 09:26:06;;;;;;;8.43;5.05;;;24.80;39.20;;;;;;4999001;28;20046;-84
2022/05/02 09:29:02;;;;;;;6.32;4.85;;;24.40;40.10;;;;;;5014943;28;20045;-84
2022/05/02 09:31:49;;;;;;;6.80;4.55;;;24.80;39.20;;;;;;5016132;28;20053;-84
2022/05/02 09:34:33;;;;;;;9.75;5.18;;;25.70;40.20;;;;;;4998861;28;20046;-83
2022/05/02 09:37:07;;;;;;;6.13;4.80;;;26.50;39.40;;;;;;5031098;28;20053;-84
2022/05/02 09:39:48;;;;;;;6.80;5.18;;;27.20;38.40;;;;;;5016036;28;20050;-84
2022/05/02 09:42:39;;;;;;;11.10;4.75;;;27.50;37.50;;;;;;4998437;28;20089;-85
2022/05/02 09:51:32;;;;;;;5.97;4.95;;;26.10;37.10;;;;;;5035374;28;20049;-85
2022/05/02 09:54:08;;;;;;;6.80;4.82;;;26.20;37.70;;;;;;4939244;29;20063;-84
2022/05/02 09:56:44;;;;;;;6.25;5.13;;;26.30;37.40;;;;;;4939207;29;20051;-85
2022/05/02 09:59:28;;;;;;;6.65;5.10;;;26.80;38.00;;;;;;4939058;29;20571;-84
2022/05/02 10:02:01;;;;;;;5.65;5.05;;;27.30;37.40;;;;;;4954872;29;20126;-84
2022/05/02 10:05:05;;;;;;;6.05;5.05;;;27.80;36.90;;;;;;4938770;29;20146;-85
2022/05/02 10:07:40;;;;;;;7.80;5.32;;;28.30;35.80;;;;;;4916685;29;20142;-85
2022/05/02 10:10:27;;;;;;;7.57;5.00;;;28.20;35.60;;;;;;4901166;29;20180;-84
2022/05/02 10:13:11;;;;;;;7.57;5.15;;;27.30;35.50;;;;;;4900976;29;20068;-84
2022/05/02 10:16:05;;;;;;;6.40;4.70;;;26.30;36.20;;;;;;4916760;29;20131;-84
2022/05/02 10:18:33;;;;;;;7.25;4.75;;;26.00;36.50;;;;;;4900972;29;20103;-84
2022/05/02 10:21:23;;;;;;;5.75;4.95;;;26.20;37.20;;;;;;4916781;29;20044;-88
2022/05/02 10:23:57;;;;;;;6.85;5.22;;;26.60;36.40;;;;;;4916622;29;20545;-86
2022/05/02 10:26:36;;;;;;;6.63;5.13;;;26.70;35.30;;;;;;4900960;29;20099;-87
2022/05/02 10:29:08;;;;;;;7.95;5.57;;;26.70;36.00;;;;;;4900797;29;20048;-87
2022/05/02 10:31:35;;;;;;;6.22;4.70;;;27.00;36.10;;;;;;4973846;28;20055;-88
2022/05/02 10:34:02;;;;;;;7.80;5.57;;;27.50;35.00;;;;;;4973745;28;20579;-91
2022/05/02 10:36:36;;;;;;;6.72;4.55;;;27.70;35.10;;;;;;4973744;28;20420;-89
2022/05/02 10:39:15;;;;;;;10.13;5.00;;;28.20;35.70;;;;;;4957586;28;20133;-88
2022/05/02 10:42:00;;;;;;;6.30;5.45;;;28.70;34.00;;;;;;4957673;28;20051;-88
2022/05/02 10:44:34;;;;;;;10.00;5.10;;;28.90;33.60;;;;;;5034766;28;20099;-88
2022/05/02 10:47:03;;;;;;;8.95;4.97;;;29.10;34.20;;;;;;4998279;28;20393;-89
2022/05/02 10:49:42;;;;;;;6.57;4.45;;;29.30;34.00;;;;;;4997556;28;20081;-89
2022/05/02 10:52:44;;;;;;;6.78;4.40;;;29.60;33.00;;;;;;5013415;28;20046;-86
2022/05/02 10:55:20;;;;;;;5.78;5.00;;;29.80;33.90;;;;;;4997239;28;20049;-86
2022/05/02 10:57:52;;;;;;;5.65;4.80;;;29.60;33.60;;;;;;4996986;28;20131;-89
2022/05/02 11:00:19;;;;;;;7.32;4.50;;;28.60;33.00;;;;;;5013477;28;20045;-88
2022/05/02 11:03:22;;;;;;;7.53;4.20;;;27.30;34.90;;;;;;5013396;28;20085;-87
2022/05/02 11:06:03;;;;;;;6.65;5.03;;;27.40;35.10;;;;;;4997281;28;20155;-87
2022/05/02 11:08:44;;;;;;;7.07;4.60;;;27.90;34.80;;;;;;5013203;28;20048;-89
2022/05/02 11:11:22;;;;;;;5.63;5.03;;;28.40;34.30;;;;;;5013946;28;20423;-88
2022/05/02 11:14:00;;;;;;;4.90;4.22;;;29.00;32.40;;;;;;4996860;28;20050;-87
2022/05/02 11:16:59;;;;;;;6.78;5.28;;;29.30;32.90;;;;;;4980816;28;20037;-87
2022/05/02 11:22:24;;;;;;;6.55;4.30;;;29.30;31.30;;;;;;4957027;28;20053;-87
2022/05/02 11:25:11;;;;;;;6.07;4.13;;;29.30;31.40;;;;;;4957297;28;20047;-87
2022/05/02 11:28:13;;;;;;;6.30;3.67;;;29.50;31.10;;;;;;4956856;28;20129;-87
2022/05/02 11:31:08;;;;;;;12.75;4.90;;;29.80;30.00;;;;;;4957016;28;20104;-88
2022/05/02 11:33:43;;;;;;;6.88;4.57;;;30.10;30.40;;;;;;4956783;28;20390;-88
2022/05/02 11:36:10;;;;;;;28.20;6.95;;;30.00;30.40;;;;;;4956198;28;20525;-87
2022/05/02 11:38:47;;;;;;;47.10;13.82;;;29.80;31.10;;;;;;4956436;28;20072;-88
2022/05/02 11:41:21;;;;;;;5.65;4.18;;;29.90;31.70;;;;;;4972575;28;20055;-89
2022/05/02 11:43:49;;;;;;;6.28;3.30;;;30.10;30.60;;;;;;4957122;28;20090;-90
2022/05/02 11:46:23;;;;;;;4.07;3.67;;;30.20;30.70;;;;;;4956314;28;20046;-90
2022/05/02 11:48:57;;;;;;;5.10;4.15;;;30.70;30.10;;;;;;4956766;28;20068;-89
2022/05/02 11:51:38;;;;;;;6.05;3.78;;;30.80;28.80;;;;;;4956466;28;20098;-90
2022/05/02 11:54:23;;;;;;;5.93;4.30;;;30.70;29.20;;;;;;4940272;28;20045;-87
2022/05/02 11:57:07;;;;;;;4.93;4.40;;;30.60;29.00;;;;;;4994084;28;20054;-88
2022/05/02 11:59:53;;;;;;;5.63;3.75;;;30.20;29.40;;;;;;4996231;28;20611;-90
2022/05/02 12:02:51;;;;;;;7.95;4.57;;;29.90;29.90;;;;;;4953919;29;20063;-89
2022/05/02 12:05:35;;;;;;;4.97;4.47;;;30.20;31.00;;;;;;4938157;29;20055;-89
2022/05/02 12:08:06;;;;;;;7.15;4.85;;;30.30;30.30;;;;;;4969500;28;20059;-90
2022/05/02 12:10:34;;;;;;;4.80;4.28;;;30.40;30.20;;;;;;4940978;29;20086;-90
2022/05/02 12:13:01;;;;;;;5.05;4.55;;;30.50;30.00;;;;;;4944982;29;20058;-90
2022/05/02 12:15:28;;;;;;;7.68;4.47;;;30.80;29.80;;;;;;4943576;29;20058;-91
2022/05/02 12:18:04;;;;;;;6.35;4.13;;;31.20;29.40;;;;;;4939106;29;20091;-89
2022/05/02 12:20:41;;;;;;;6.38;4.22;;;31.40;30.00;;;;;;4954391;29;20420;-90
2022/05/02 12:23:18;;;;;;;4.97;4.35;;;31.40;30.00;;;;;;4937516;29;20059;-93
2022/05/02 12:25:54;;;;;;;5.82;4.40;;;31.60;29.80;;;;;;4938243;28;20055;-92
2022/05/02 12:28:42;;;;;;;4.32;3.92;;;31.50;29.30;;;;;;4921855;29;20046;-90
2022/05/02 12:31:13;;;;;;;9.40;3.55;;;31.50;29.70;;;;;;4936869;29;20063;-89
2022/05/02 12:33:43;;;;;;;4.35;3.95;;;31.50;29.20;;;;;;4937723;29;20067;-91
2022/05/02 12:36:20;;;;;;;6.03;4.68;;;31.10;28.90;;;;;;4937453;29;20047;-88
2022/05/02 12:39:05;;;;;;;7.72;3.80;;;30.40;29.60;;;;;;4966930;28;20053;-89
2022/05/02 12:41:46;;;;;;;5.95;4.10;;;30.00;29.30;;;;;;4995575;28;20120;-91
2022/05/02 12:44:14;;;;;;;6.00;5.30;;;29.70;30.00;;;;;;4995807;28;20093;-91
2022/05/02 12:46:48;;;;;;;7.22;4.68;;;29.30;30.30;;;;;;5029065;28;20529;-92
2022/05/02 12:49:21;;;;;;;7.43;4.40;;;28.80;30.70;;;;;;5024402;28;20137;-91
2022/05/02 12:51:55;;;;;;;6.18;3.78;;;28.00;31.10;;;;;;5032585;28;20037;-91
2022/05/02 12:54:23;;;;;;;4.25;3.85;;;28.10;32.80;;;;;;5015568;28;20045;-89
2022/05/02 13:00:32;;;;;;;7.70;3.70;;;29.70;31.30;;;;;;4991040;28;20047;-91
2022/05/02 13:03:10;;;;;;;6.70;4.10;;;30.40;29.80;;;;;;4935971;29;20469;-88
2022/05/02 13:05:49;;;;;;;6.82;4.18;;;29.70;29.90;;;;;;4934798;29;20055;-91
2022/05/02 13:08:19;;;;;;;8.63;4.28;;;28.70;31.10;;;;;;4935366;29;20091;-90
2022/05/02 13:10:49;;;;;;;5.95;4.10;;;28.80;31.50;;;;;;4969043;28;20101;-91
2022/05/02 13:13:17;;;;;;;6.78;4.13;;;29.20;31.00;;;;;;4971950;28;20177;-90
2022/05/02 13:15:43;;;;;;;6.15;4.05;;;29.30;30.20;;;;;;4955109;28;20094;-90
2022/05/02 13:18:43;;;;;;;5.28;3.83;;;29.00;30.40;;;;;;4955017;28;20065;-92
2022/05/02 13:21:12;;;;;;;7.15;3.97;;;28.20;31.00;;;;;;4955150;28;20145;-89
2022/05/02 13:23:44;;;;;;;5.00;4.30;;;27.50;33.60;;;;;;4955076;28;20575;-91
2022/05/02 13:26:36;;;;;;;5.75;4.35;;;26.80;34.20;;;;;;4939446;28;20448;-90
2022/05/02 13:29:20;;;;;;;5.03;4.07;;;26.40;34.60;;;;;;4939549;28;20094;-90
2022/05/02 13:32:03;;;;;;;8.95;4.10;;;26.50;35.60;;;;;;4955617;28;20145;-88
2022/05/02 13:34:53;;;;;;;7.47;4.03;;;26.50;34.90;;;;;;4972501;28;20050;-88
2022/05/02 13:37:38;;;;;;;5.55;3.97;;;26.10;35.10;;;;;;5015851;28;20411;-89
2022/05/02 13:40:13;;;;;;;6.53;3.88;;;25.20;35.60;;;;;;5018731;28;20053;-91
2022/05/02 13:43:00;;;;;;;7.50;3.92;;;24.90;36.20;;;;;;5018080;28;20514;-90
2022/05/02 13:45:28;;;;;;;6.03;3.92;;;25.00;36.50;;;;;;5001797;28;20049;-90
2022/05/02 13:48:13;;;;;;;5.25;4.22;;;25.10;36.80;;;;;;5018494;28;20053;-90